Time;durP1;ratioP1;P1;durP2;ratioP2;P2;SDS_P1;SDS_P2;PMS_P1;PMS_P2;Temp;Humidity;BMP_temperature;BMP_pressure;BME280_temperature;BME280_humidity;BME280_pressure;Samples;Min_cycle;Max_cycle;Signal;HPM_P1;HPM_P2
2022/11/09 00:01:02;;;;;;;7.85;3.47;;;;;;;11.70;94.45;100346.16;6306831;22;20413;-90
2022/11/09 00:03:28;;;;;;;6.63;3.20;;;;;;;11.67;94.94;100340.16;6304981;22;20029;-90
2022/11/09 00:05:57;;;;;;;4.32;3.13;;;;;;;11.67;95.19;100353.47;6278248;22;20072;-90
2022/11/09 00:08:23;;;;;;;6.75;3.05;;;;;;;11.63;95.41;100349.31;6306451;22;20013;-90
2022/11/09 00:10:48;;;;;;;6.90;3.03;;;;;;;11.57;95.65;100339.84;6306433;22;20034;-90
2022/11/09 00:13:13;;;;;;;5.63;3.35;;;;;;;11.55;95.68;100330.28;6305590;22;20010;-87
2022/11/09 00:15:39;;;;;;;4.63;3.00;;;;;;;11.62;96.03;100332.44;6307014;22;20376;-89
2022/11/09 00:18:04;;;;;;;4.78;3.08;;;;;;;11.67;95.87;100337.50;6305906;22;20007;-89
2022/11/09 00:20:29;;;;;;;4.88;3.20;;;;;;;11.72;95.59;100343.38;6308367;22;20094;-89
2022/11/09 00:22:55;;;;;;;5.70;3.33;;;;;;;11.77;95.50;100337.75;6278632;22;20014;-88
2022/11/09 00:25:20;;;;;;;5.68;3.20;;;;;;;11.70;95.55;100330.16;6306330;22;20061;-90
2022/11/09 00:27:45;;;;;;;6.50;3.45;;;;;;;11.76;95.39;100336.91;6308139;22;19999;-89
2022/11/09 00:30:11;;;;;;;8.55;3.58;;;;;;;11.79;95.46;100335.81;6304803;22;20006;-89
2022/11/09 00:32:36;;;;;;;5.25;3.28;;;;;;;11.78;95.14;100332.31;6308555;22;20117;-88
2022/11/09 00:35:02;;;;;;;8.65;3.25;;;;;;;11.83;95.20;100340.94;6307872;22;20007;-89
2022/11/09 00:37:31;;;;;;;5.07;3.33;;;;;;;11.89;95.06;100339.66;6311240;22;20379;-88
2022/11/09 00:39:56;;;;;;;4.65;3.00;;;;;;;11.87;94.97;100337.13;6309152;22;20089;-89
2022/11/09 00:42:21;;;;;;;6.95;3.13;;;;;;;11.92;94.64;100336.81;6315928;22;20022;-89
2022/11/09 00:44:47;;;;;;;5.97;2.85;;;;;;;11.91;94.92;100333.28;6320731;22;19999;-90
2022/11/09 00:47:12;;;;;;;6.03;2.63;;;;;;;11.89;94.84;100335.19;6321579;22;19999;-88
2022/11/09 00:49:38;;;;;;;6.03;3.10;;;;;;;11.82;94.79;100335.63;6306843;22;20010;-89
2022/11/09 00:52:03;;;;;;;4.25;2.53;;;;;;;11.78;95.15;100331.47;6306285;22;20010;-89
2022/11/09 00:54:28;;;;;;;4.38;2.65;;;;;;;11.78;95.28;100334.97;6278723;22;20010;-90
2022/11/09 00:56:54;;;;;;;7.57;3.00;;;;;;;11.72;95.44;100327.38;6305709;22;20007;-90
2022/11/09 00:59:19;;;;;;;7.10;2.92;;;;;;;11.73;95.67;100334.41;6307256;22;20007;-90
2022/11/09 01:01:44;;;;;;;4.13;2.65;;;;;;;11.80;95.15;100335.75;6307648;22;20004;-90
2022/11/09 01:04:10;;;;;;;5.55;2.90;;;;;;;11.78;95.37;100342.97;6278994;22;20438;-90
2022/11/09 01:06:35;;;;;;;4.65;2.92;;;;;;;11.76;94.76;100334.22;6306087;22;20007;-89
2022/11/09 01:09:00;;;;;;;5.95;2.88;;;;;;;11.76;94.66;100334.22;6277691;22;20314;-90
2022/11/09 01:11:25;;;;;;;7.63;3.13;;;;;;;11.82;94.68;100344.50;6304313;22;20003;-90
2022/11/09 01:13:51;;;;;;;5.90;2.67;;;;;;;11.75;94.96;100332.53;6304049;22;20328;-90
2022/11/09 01:16:19;;;;;;;5.35;2.70;;;;;;;11.64;95.27;100338.53;6302833;22;19995;-89
2022/11/09 01:18:45;;;;;;;6.97;2.83;;;;;;;11.66;95.67;100341.09;6303754;22;20018;-90
2022/11/09 01:21:12;;;;;;;5.72;2.90;;;;;;;11.71;95.14;100355.00;6305579;22;19999;-90
2022/11/09 01:23:38;;;;;;;5.60;2.60;;;;;;;11.65;95.46;100353.56;6305975;22;20031;-89
2022/11/09 01:26:07;;;;;;;6.32;2.90;;;;;;;11.59;95.10;100347.78;6304466;22;19995;-89
2022/11/09 01:28:33;;;;;;;6.35;2.80;;;;;;;11.67;95.37;100359.66;6304589;22;20007;-90
2022/11/09 01:31:08;;;;;;;6.38;3.10;;;;;;;11.67;94.78;100361.47;6304452;22;20010;-90
2022/11/09 01:33:34;;;;;;;6.90;3.00;;;;;;;11.53;95.07;100349.00;6277362;22;20019;-90
2022/11/09 01:36:09;;;;;;;6.65;2.60;;;;;;;11.64;95.07;100359.84;6302120;22;20314;-89
2022/11/09 01:38:36;;;;;;;5.63;2.53;;;;;;;11.61;95.03;100357.38;6275191;22;20025;-88
2022/11/09 01:41:02;;;;;;;4.60;2.45;;;;;;;11.57;94.76;100347.00;6304755;22;20082;-89
2022/11/09 01:43:28;;;;;;;5.65;2.72;;;;;;;11.59;94.69;100347.78;6303913;22;20365;-89
2022/11/09 01:45:58;;;;;;;7.60;3.40;;;;;;;11.58;94.67;100354.03;6303512;22;20007;-89
2022/11/09 01:48:45;;;;;;;6.78;3.05;;;;;;;11.63;94.65;100359.97;6303671;22;20433;-89
2022/11/09 01:51:26;;;;;;;6.38;2.65;;;;;;;11.62;93.87;100352.91;6303710;22;20010;-89
2022/11/09 01:53:56;;;;;;;7.43;2.90;;;;;;;11.65;94.23;100358.03;6303828;22;20336;-89
2022/11/09 01:56:21;;;;;;;4.43;2.50;;;;;;;11.69;94.32;100362.22;6302980;22;20081;-89
2022/11/09 01:58:58;;;;;;;5.00;2.70;;;;;;;11.67;94.24;100358.81;6304029;22;19986;-89
2022/11/09 02:01:24;;;;;;;6.30;3.13;;;;;;;11.62;94.26;100361.78;6303465;22;20007;-88
2022/11/09 02:04:04;;;;;;;7.38;3.10;;;;;;;11.55;94.61;100348.94;6303800;22;20087;-89
2022/11/09 02:06:30;;;;;;;7.53;2.90;;;;;;;11.41;94.83;100347.97;6304464;22;20031;-89
2022/11/09 02:09:06;;;;;;;9.88;3.50;;;;;;;11.44;95.21;100360.25;6304277;22;20046;-89
2022/11/09 02:11:33;;;;;;;8.32;3.33;;;;;;;11.36;95.26;100346.53;6304150;22;20060;-88
2022/11/09 02:14:00;;;;;;;10.77;3.35;;;;;;;11.21;95.60;100332.38;6304035;22;20302;-88
2022/11/09 02:16:26;;;;;;;7.22;2.95;;;;;;;11.34;95.22;100348.44;6302876;22;20094;-89
2022/11/09 02:18:57;;;;;;;6.75;2.97;;;;;;;11.34;95.50;100359.97;6305189;22;20062;-89
2022/11/09 02:21:26;;;;;;;9.77;2.83;;;;;;;11.42;94.89;100368.34;6304405;22;20006;-89
2022/11/09 02:23:51;;;;;;;7.25;2.90;;;;;;;11.44;94.71;100349.59;6275265;22;19999;-89
2022/11/09 02:26:34;;;;;;;6.05;3.08;;;;;;;11.41;94.25;100353.31;6276653;22;19999;-89
2022/11/09 02:29:02;;;;;;;7.35;2.53;;;;;;;11.44;94.06;100371.75;6304751;22;20562;-89
2022/11/09 02:31:33;;;;;;;9.07;2.78;;;;;;;11.47;93.90;100365.38;6305074;22;20017;-88
2022/11/09 02:34:05;;;;;;;7.13;2.72;;;;;;;11.46;93.72;100367.19;6276835;22;20426;-89
2022/11/09 02:36:30;;;;;;;6.72;2.95;;;;;;;11.50;93.48;100372.34;6304870;22;20037;-88
2022/11/09 02:38:56;;;;;;;8.90;2.33;;;;;;;11.61;92.79;100386.69;6306377;22;20436;-89
2022/11/09 02:41:23;;;;;;;7.00;2.63;;;;;;;11.64;92.08;100380.31;6307942;22;20096;-89
2022/11/09 02:43:51;;;;;;;8.75;2.92;;;;;;;11.60;92.12;100370.81;6307348;22;20139;-89
2022/11/09 02:46:33;;;;;;;6.38;2.83;;;;;;;11.62;92.57;100384.88;6306842;22;20029;-89
2022/11/09 02:49:03;;;;;;;7.90;2.10;;;;;;;11.56;91.93;100362.16;6277818;22;20430;-89
2022/11/09 02:51:28;;;;;;;6.43;2.78;;;;;;;11.56;92.11;100369.28;6309637;22;20457;-88
2022/11/09 02:53:54;;;;;;;6.70;2.72;;;;;;;11.56;91.83;100371.94;6305833;22;20011;-89
2022/11/09 02:56:19;;;;;;;7.55;2.50;;;;;;;11.53;91.60;100358.81;6277897;22;20090;-89
2022/11/09 02:58:44;;;;;;;8.10;2.45;;;;;;;11.65;91.05;100363.38;6304531;22;20014;-89
2022/11/09 03:01:10;;;;;;;7.78;2.60;;;;;;;11.61;91.36;100357.38;6278046;22;20029;-89
2022/11/09 03:03:35;;;;;;;8.35;2.88;;;;;;;11.64;91.06;100354.53;6306817;22;20409;-90
2022/11/09 03:06:01;;;;;;;7.43;2.65;;;;;;;11.66;90.74;100333.09;6306229;22;20003;-89
2022/11/09 03:08:26;;;;;;;12.10;3.30;;;;;;;11.63;91.18;100333.31;6277947;22;20061;-90
2022/11/09 03:10:52;;;;;;;7.95;2.90;;;;;;;11.58;92.58;100338.94;6307492;22;20033;-89
2022/11/09 03:13:19;;;;;;;9.55;2.92;;;;;;;11.50;94.48;100359.03;6286607;22;20339;-91
2022/11/09 03:15:44;;;;;;;12.43;3.20;;;;;;;11.38;94.53;100356.16;6309493;22;19999;-89
2022/11/09 03:18:10;;;;;;;9.65;2.92;;;;;;;11.28;96.44;100357.66;6281769;22;20310;-89
2022/11/09 03:20:35;;;;;;;8.02;3.10;;;;;;;11.18;97.48;100365.38;6285549;22;20333;-90
2022/11/09 03:23:00;;;;;;;7.53;3.40;;;;;;;11.12;97.94;100373.75;6318402;22;20007;-89
2022/11/09 03:25:26;;;;;;;6.53;2.85;;;;;;;11.03;97.66;100384.06;6319714;22;20022;-88
2022/11/09 03:27:59;;;;;;;9.95;2.70;;;;;;;11.00;98.32;100393.13;6288902;22;20003;-88
2022/11/09 03:30:25;;;;;;;8.77;3.28;;;;;;;10.90;98.76;100387.47;6318406;22;20007;-87
2022/11/09 03:32:56;;;;;;;8.63;2.72;;;;;;;10.91;99.33;100394.53;6311273;22;20011;-88
2022/11/09 03:35:22;;;;;;;7.78;2.60;;;;;;;10.90;99.49;100402.59;6277393;22;20314;-88
2022/11/09 03:37:47;;;;;;;6.93;2.70;;;;;;;10.93;99.06;100394.44;6307639;22;20006;-87
2022/11/09 03:40:12;;;;;;;10.38;3.00;;;;;;;10.93;99.46;100400.59;6305660;22;20520;-87
2022/11/09 03:42:43;;;;;;;9.35;3.25;;;;;;;11.01;99.16;100413.47;6278714;22;20009;-89
2022/11/09 03:45:08;;;;;;;7.82;2.70;;;;;;;11.05;98.78;100411.50;6306346;22;20073;-89
2022/11/09 03:47:34;;;;;;;8.75;2.92;;;;;;;11.14;98.24;100417.13;6306449;22;19987;-89
2022/11/09 03:49:59;;;;;;;8.35;2.47;;;;;;;11.19;98.55;100424.81;6305952;22;20003;-89
2022/11/09 03:52:24;;;;;;;10.50;3.28;;;;;;;11.23;97.77;100423.69;6277395;22;20007;-89
2022/11/09 03:54:49;;;;;;;10.88;3.05;;;;;;;11.23;98.11;100424.53;6305348;22;20091;-88
2022/11/09 03:57:15;;;;;;;9.07;2.60;;;;;;;11.28;97.80;100439.41;6278373;22;20053;-87
2022/11/09 03:59:40;;;;;;;7.25;2.42;;;;;;;11.29;97.73;100442.00;6306555;22;20432;-90
2022/11/09 04:02:05;;;;;;;9.35;3.28;;;;;;;11.25;97.80;100440.47;6279566;22;20069;-89
2022/11/09 04:04:30;;;;;;;8.18;2.97;;;;;;;11.30;97.09;100438.38;6306024;22;20006;-89
2022/11/09 04:06:56;;;;;;;7.00;2.35;;;;;;;11.28;97.19;100440.25;6307625;22;19999;-89
2022/11/09 04:09:21;;;;;;;7.47;2.55;;;;;;;11.29;97.18;100444.66;6306766;22;20328;-89
2022/11/09 04:11:46;;;;;;;7.40;2.85;;;;;;;11.25;96.92;100434.28;6306685;22;20069;-88
2022/11/09 04:14:12;;;;;;;8.63;2.63;;;;;;;11.33;96.68;100448.84;6276486;22;20310;-88
2022/11/09 04:16:38;;;;;;;8.25;2.40;;;;;;;11.12;96.76;100427.00;6304430;22;20069;-89
2022/11/09 04:19:03;;;;;;;11.15;3.20;;;;;;;11.09;97.20;100437.00;6305170;22;20004;-88
2022/11/09 04:21:29;;;;;;;9.80;2.50;;;;;;;11.07;97.59;100449.53;6305786;22;20075;-88
2022/11/09 04:23:54;;;;;;;11.50;2.97;;;;;;;11.03;97.89;100450.66;6305226;22;20030;-88
2022/11/09 04:26:19;;;;;;;8.63;2.95;;;;;;;10.96;98.05;100458.16;6305236;22;20414;-89
2022/11/09 04:28:44;;;;;;;10.50;2.70;;;;;;;10.91;98.64;100465.53;6307387;22;20026;-88
2022/11/09 04:31:10;;;;;;;9.52;2.80;;;;;;;10.91;98.50;100452.22;6306170;22;20010;-89
2022/11/09 04:33:35;;;;;;;6.80;2.30;;;;;;;10.86;98.76;100459.63;6307393;22;20026;-88
2022/11/09 04:36:02;;;;;;;8.90;3.42;;;;;;;10.85;99.26;100471.22;6305866;22;20413;-88
2022/11/09 04:38:27;;;;;;;8.85;3.42;;;;;;;10.81;99.37;100467.03;6277799;22;20449;-88
2022/11/09 04:40:53;;;;;;;8.25;3.28;;;;;;;10.79;99.91;100469.78;6303834;22;20018;-88
2022/11/09 04:43:18;;;;;;;10.25;2.85;;;;;;;10.83;99.51;100479.31;6276693;22;20068;-88
2022/11/09 04:45:44;;;;;;;7.82;2.75;;;;;;;10.89;99.62;100472.78;6303924;22;20006;-88
2022/11/09 04:48:10;;;;;;;9.00;3.00;;;;;;;10.88;99.66;100476.38;6304282;22;20007;-89
2022/11/09 04:50:36;;;;;;;11.05;2.72;;;;;;;10.81;99.87;100478.53;6305009;22;19994;-89
2022/11/09 04:53:10;;;;;;;9.60;2.67;;;;;;;10.77;100.00;100474.34;6306314;22;20007;-89
2022/11/09 04:55:36;;;;;;;8.68;2.90;;;;;;;10.75;100.00;100489.56;6306299;22;20018;-89
2022/11/09 04:58:01;;;;;;;10.27;2.88;;;;;;;10.69;100.00;100489.88;6304973;22;20007;-88
2022/11/09 05:00:27;;;;;;;8.82;2.90;;;;;;;10.64;100.00;100481.31;6305111;22;20701;-88
2022/11/09 05:02:52;;;;;;;9.60;3.00;;;;;;;10.60;100.00;100479.75;6277187;22;20034;-88
2022/11/09 05:05:17;;;;;;;10.13;3.13;;;;;;;10.58;100.00;100477.19;6303915;22;20090;-88
2022/11/09 05:07:43;;;;;;;10.68;3.30;;;;;;;10.55;100.00;100473.84;6305899;22;20013;-88
2022/11/09 05:10:08;;;;;;;9.98;3.10;;;;;;;10.47;100.00;100468.97;6277839;22;20286;-88
2022/11/09 05:12:33;;;;;;;11.90;3.38;;;;;;;10.52;100.00;100474.00;6304088;22;20003;-88
2022/11/09 05:14:59;;;;;;;8.82;2.85;;;;;;;10.42;100.00;100455.91;6302373;22;20004;-88
2022/11/09 05:17:24;;;;;;;10.25;2.95;;;;;;;10.48;100.00;100460.88;6276804;22;20007;-89
2022/11/09 05:19:49;;;;;;;11.73;3.40;;;;;;;10.43;100.00;100468.25;6304869;22;20003;-89
2022/11/09 05:24:59;;;;;;;10.73;3.35;;;;;;;10.41;100.00;100471.97;6306102;22;20046;-87
2022/11/09 05:27:24;;;;;;;11.57;3.40;;;;;;;10.37;100.00;100465.97;6305922;22;20360;-89
2022/11/09 05:29:49;;;;;;;8.80;3.00;;;;;;;10.36;100.00;100469.53;6306207;22;20007;-88
2022/11/09 05:32:14;;;;;;;11.43;3.22;;;;;;;10.29;100.00;100465.53;6278144;22;20015;-90
2022/11/09 05:34:40;;;;;;;7.30;3.25;;;;;;;10.30;100.00;100467.25;6278123;22;20723;-89
2022/11/09 05:37:05;;;;;;;10.20;3.33;;;;;;;10.23;100.00;100468.47;6305708;22;20297;-89
2022/11/09 05:39:30;;;;;;;9.88;3.28;;;;;;;10.22;100.00;100459.66;6306663;22;20007;-89
2022/11/09 05:41:55;;;;;;;10.88;3.53;;;;;;;10.21;100.00;100470.38;6278587;22;20011;-88
2022/11/09 05:44:21;;;;;;;12.90;3.35;;;;;;;10.27;100.00;100474.53;6303609;22;20007;-88
2022/11/09 05:46:46;;;;;;;9.73;2.83;;;;;;;10.24;100.00;100472.84;6280108;22;20034;-88
2022/11/09 05:49:11;;;;;;;9.55;3.50;;;;;;;10.16;100.00;100467.13;6279702;22;20039;-89
2022/11/09 05:51:37;;;;;;;9.55;3.40;;;;;;;10.20;100.00;100474.00;6306915;22;20011;-88
2022/11/09 05:54:02;;;;;;;14.40;4.05;;;;;;;10.19;100.00;100459.81;6308252;22;20072;-89
2022/11/09 05:56:27;;;;;;;9.15;3.58;;;;;;;10.23;100.00;100472.00;6310586;22;20014;-89
2022/11/09 05:58:52;;;;;;;9.73;3.33;;;;;;;10.25;100.00;100466.66;6285987;22;20057;-89
2022/11/09 06:01:18;;;;;;;9.43;2.97;;;;;;;10.22;100.00;100470.28;6323685;22;20014;-89
2022/11/09 06:03:43;;;;;;;11.20;3.40;;;;;;;10.25;100.00;100469.31;6327883;22;20009;-90
2022/11/09 06:06:10;;;;;;;8.20;3.47;;;;;;;10.25;100.00;100466.66;6312588;22;20322;-87
2022/11/09 06:08:36;;;;;;;18.70;4.03;;;;;;;10.31;100.00;100476.06;6316482;22;20001;-88
2022/11/09 06:11:05;;;;;;;10.35;3.25;;;;;;;10.26;100.00;100471.00;6317383;22;20112;-88
2022/11/09 06:13:31;;;;;;;11.00;3.58;;;;;;;10.17;100.00;100468.84;6315734;22;20003;-88
2022/11/09 06:15:58;;;;;;;12.05;3.90;;;;;;;10.16;100.00;100475.97;6315724;22;20009;-88
2022/11/09 06:18:25;;;;;;;10.45;3.50;;;;;;;10.12;100.00;100482.38;6306905;22;20029;-89
2022/11/09 06:20:55;;;;;;;15.02;4.00;;;;;;;10.09;100.00;100485.22;6307065;22;20003;-88
2022/11/09 06:23:28;;;;;;;13.82;4.50;;;;;;;10.13;100.00;100488.56;6305140;22;20003;-88
2022/11/09 06:26:01;;;;;;;8.50;3.60;;;;;;;10.08;100.00;100494.13;6304645;22;20004;-88
2022/11/09 06:28:27;;;;;;;10.25;3.90;;;;;;;10.05;100.00;100493.44;6277362;22;20010;-89
2022/11/09 06:30:55;;;;;;;8.98;3.33;;;;;;;10.04;100.00;100489.06;6277761;22;20237;-88
2022/11/09 06:33:21;;;;;;;10.18;3.53;;;;;;;10.06;100.00;100496.00;6277025;22;20136;-90
2022/11/09 06:35:46;;;;;;;10.30;3.40;;;;;;;9.95;100.00;100475.34;6305936;22;20007;-89
2022/11/09 06:38:12;;;;;;;8.85;3.17;;;;;;;10.00;100.00;100496.34;6303661;22;20332;-87
2022/11/09 06:40:38;;;;;;;10.02;3.40;;;;;;;9.92;100.00;100485.28;6303335;22;19999;-88
2022/11/09 06:43:03;;;;;;;11.48;3.78;;;;;;;9.97;100.00;100501.81;6302455;22;20356;-89
2022/11/09 06:45:29;;;;;;;11.32;3.78;;;;;;;9.99;100.00;100505.28;6301271;22;20086;-88
2022/11/09 06:47:59;;;;;;;11.65;3.75;;;;;;;9.96;100.00;100505.44;6303390;22;20007;-92
2022/11/09 06:50:27;;;;;;;9.80;3.22;;;;;;;9.94;100.00;100504.63;6305985;22;19987;-88
2022/11/09 06:53:01;;;;;;;8.77;3.53;;;;;;;9.92;100.00;100514.50;6306462;22;20007;-89
2022/11/09 06:55:27;;;;;;;9.70;3.67;;;;;;;9.93;100.00;100513.56;6304742;22;20007;-89
2022/11/09 06:57:53;;;;;;;9.65;3.75;;;;;;;9.88;100.00;100518.28;6304649;22;20090;-92
2022/11/09 07:00:19;;;;;;;10.13;3.13;;;;;;;9.90;100.00;100525.22;6305169;22;20010;-91
2022/11/09 07:02:44;;;;;;;12.77;3.63;;;;;;;9.87;100.00;100516.56;6306916;22;20009;-89
2022/11/09 07:05:09;;;;;;;9.73;3.50;;;;;;;9.90;100.00;100527.00;6307235;22;20072;-89
2022/11/09 07:07:35;;;;;;;12.30;3.83;;;;;;;9.83;100.00;100513.19;6307139;22;19987;-89
2022/11/09 07:10:00;;;;;;;10.13;3.45;;;;;;;9.86;100.00;100521.00;6307626;22;20062;-89
2022/11/09 07:12:25;;;;;;;13.05;3.53;;;;;;;9.83;100.00;100515.00;6276875;22;20014;-89
2022/11/09 07:14:51;;;;;;;9.85;3.70;;;;;;;9.85;100.00;100532.56;6304874;22;20080;-90
2022/11/09 07:17:16;;;;;;;11.00;4.22;;;;;;;9.84;100.00;100524.69;6304694;22;20108;-89
2022/11/09 07:19:42;;;;;;;11.50;3.63;;;;;;;9.78;100.00;100531.19;6309145;22;20524;-88
2022/11/09 07:22:07;;;;;;;10.88;4.50;;;;;;;9.76;100.00;100526.91;6307118;22;20045;-90
2022/11/09 07:24:32;;;;;;;9.98;3.83;;;;;;;9.77;100.00;100537.44;6308121;22;19991;-89
2022/11/09 07:26:57;;;;;;;11.25;3.78;;;;;;;9.77;100.00;100540.09;6313920;22;20002;-89
2022/11/09 07:29:23;;;;;;;11.05;3.80;;;;;;;9.82;100.00;100551.34;6317763;22;20420;-90
2022/11/09 07:31:48;;;;;;;11.52;3.80;;;;;;;9.87;100.00;100549.31;6309824;22;20074;-91
2022/11/09 07:34:14;;;;;;;8.65;3.95;;;;;;;9.88;100.00;100550.16;6306331;22;20010;-91
2022/11/09 07:36:39;;;;;;;11.13;3.88;;;;;;;9.86;100.00;100542.25;6278695;22;20512;-89
2022/11/09 07:39:05;;;;;;;10.93;3.80;;;;;;;9.87;100.00;100548.47;6304405;22;20011;-91
2022/11/09 07:41:30;;;;;;;9.15;3.45;;;;;;;9.92;100.00;100549.94;6305332;22;20096;-89
2022/11/09 07:43:56;;;;;;;9.45;4.07;;;;;;;9.94;100.00;100549.84;6303346;22;20481;-90
2022/11/09 07:46:22;;;;;;;10.95;3.65;;;;;;;9.96;100.00;100543.50;6305719;22;19999;-88
2022/11/09 07:48:47;;;;;;;10.93;3.40;;;;;;;10.01;100.00;100545.06;6278453;22;20035;-89
2022/11/09 07:51:12;;;;;;;11.63;3.40;;;;;;;9.98;100.00;100543.41;6305166;22;20003;-89
2022/11/09 07:53:38;;;;;;;10.48;3.65;;;;;;;10.03;100.00;100544.03;6303794;22;20619;-91
2022/11/09 07:56:04;;;;;;;9.70;4.07;;;;;;;10.10;100.00;100564.03;6304179;22;19983;-91
2022/11/09 07:58:29;;;;;;;7.65;3.03;;;;;;;10.05;100.00;100546.63;6305804;22;20007;-89
2022/11/09 08:00:55;;;;;;;10.15;3.80;;;;;;;10.11;100.00;100557.78;6303052;22;20149;-87
2022/11/09 08:03:21;;;;;;;10.07;3.95;;;;;;;10.16;100.00;100566.38;6307242;22;19999;-89
2022/11/09 08:05:47;;;;;;;9.15;3.58;;;;;;;10.16;100.00;100562.88;6305486;22;20029;-88
2022/11/09 08:08:14;;;;;;;10.02;3.50;;;;;;;10.25;100.00;100559.75;6306570;22;20003;-89
2022/11/09 08:10:40;;;;;;;8.25;3.20;;;;;;;10.25;100.00;100554.44;6277983;22;20007;-89
2022/11/09 08:13:08;;;;;;;11.63;3.50;;;;;;;10.34;100.00;100564.56;6305031;22;20379;-87
2022/11/09 08:15:35;;;;;;;9.52;3.50;;;;;;;10.38;100.00;100559.94;6306323;22;20006;-89
2022/11/09 08:18:03;;;;;;;6.65;3.13;;;;;;;10.41;100.00;100563.28;6305757;22;20007;-88
2022/11/09 08:20:29;;;;;;;9.18;3.20;;;;;;;10.44;100.00;100575.56;6281761;22;20393;-88
2022/11/09 08:22:55;;;;;;;8.07;3.05;;;;;;;10.47;100.00;100573.59;6305409;22;20007;-91
2022/11/09 08:25:20;;;;;;;8.32;3.35;;;;;;;10.52;100.00;100580.47;6306639;22;20015;-90
2022/11/09 08:27:46;;;;;;;7.90;2.92;;;;;;;10.46;100.00;100574.53;6280966;22;20017;-90
2022/11/09 08:30:18;;;;;;;14.27;3.30;;;;;;;10.47;100.00;100580.72;6306088;22;20014;-88
2022/11/09 08:32:44;;;;;;;8.98;3.05;;;;;;;10.44;100.00;100576.41;6313877;22;20429;-90
2022/11/09 08:35:12;;;;;;;8.88;3.08;;;;;;;10.51;100.00;100587.59;6325684;22;19995;-92
2022/11/09 08:37:38;;;;;;;7.78;2.67;;;;;;;10.57;100.00;100591.69;6324068;22;20052;-87
2022/11/09 08:40:05;;;;;;;7.35;3.35;;;;;;;10.56;100.00;100590.84;6317411;22;20061;-90
2022/11/09 08:42:30;;;;;;;8.40;3.00;;;;;;;10.66;100.00;100591.22;6313597;22;19999;-90
2022/11/09 08:44:55;;;;;;;8.68;3.15;;;;;;;10.69;100.00;100597.22;6310118;22;19999;-92
2022/11/09 08:47:21;;;;;;;8.05;3.15;;;;;;;10.65;100.00;100585.00;6310678;22;20045;-89
2022/11/09 08:49:47;;;;;;;7.60;2.65;;;;;;;10.77;99.96;100598.59;6290967;22;19999;-90
2022/11/09 08:52:12;;;;;;;11.93;3.20;;;;;;;10.82;99.59;100600.03;6317548;22;20137;-88
2022/11/09 08:54:38;;;;;;;8.95;3.15;;;;;;;10.85;99.47;100599.88;6318522;22;20367;-89
2022/11/09 08:57:04;;;;;;;12.45;3.05;;;;;;;10.91;98.98;100588.91;6313419;22;20041;-90
2022/11/09 08:59:29;;;;;;;10.07;2.70;;;;;;;11.00;98.60;100611.50;6307247;22;20451;-89
2022/11/09 09:01:55;;;;;;;9.02;3.38;;;;;;;11.03;98.26;100590.00;6304644;22;20014;-89
2022/11/09 09:04:20;;;;;;;8.90;3.30;;;;;;;11.01;97.42;100586.56;6306879;22;20318;-88
2022/11/09 09:06:45;;;;;;;8.88;3.13;;;;;;;11.11;97.42;100592.22;6306528;22;20500;-88
2022/11/09 09:09:11;;;;;;;7.68;3.30;;;;;;;11.12;96.66;100593.94;6306955;22;20018;-88
2022/11/09 09:11:36;;;;;;;9.55;3.58;;;;;;;11.19;96.12;100592.66;6307033;22;20075;-89
2022/11/09 09:14:01;;;;;;;10.18;3.45;;;;;;;11.28;95.81;100597.44;6278475;22;20003;-89
2022/11/09 09:16:27;;;;;;;9.10;3.67;;;;;;;11.37;95.43;100599.59;6304991;22;20007;-88
2022/11/09 09:18:53;;;;;;;10.60;3.30;;;;;;;11.35;94.96;100579.31;6305023;22;20010;-89
2022/11/09 09:21:18;;;;;;;8.27;2.78;;;;;;;11.50;94.10;100602.41;6304236;22;20011;-90
2022/11/09 09:23:47;;;;;;;11.23;3.95;;;;;;;11.56;93.04;100602.03;6278632;22;20007;-91
2022/11/09 09:26:12;;;;;;;8.40;3.10;;;;;;;11.69;93.04;100604.84;6277118;22;20438;-89
2022/11/09 09:28:37;;;;;;;10.35;3.05;;;;;;;11.81;91.86;100593.44;6305433;22;20011;-90
2022/11/09 09:31:03;;;;;;;9.60;3.10;;;;;;;11.89;91.58;100601.00;6305149;22;19987;-89
2022/11/09 09:33:29;;;;;;;9.32;2.78;;;;;;;11.97;90.90;100609.41;6305209;22;20014;-89
2022/11/09 09:35:56;;;;;;;8.93;2.85;;;;;;;12.03;90.46;100621.50;6304704;22;20005;-90
2022/11/09 09:38:21;;;;;;;12.20;3.00;;;;;;;12.00;89.65;100608.34;6305695;22;20046;-90
2022/11/09 09:40:58;;;;;;;8.52;3.17;;;;;;;12.03;89.06;100617.03;6304283;22;20042;-89
2022/11/09 09:43:28;;;;;;;6.70;2.53;;;;;;;12.02;88.25;100617.13;6305410;22;20429;-89
2022/11/09 09:45:54;;;;;;;8.13;2.80;;;;;;;11.96;88.98;100599.69;6304753;22;20034;-88
2022/11/09 09:48:37;;;;;;;8.68;2.60;;;;;;;12.08;88.55;100617.63;6305101;22;20325;-90
2022/11/09 09:51:15;;;;;;;9.63;3.25;;;;;;;12.08;87.99;100622.09;6304422;22;20011;-91
2022/11/09 09:53:56;;;;;;;9.88;3.00;;;;;;;12.05;88.49;100625.81;6278086;22;20436;-89
2022/11/09 09:56:27;;;;;;;10.75;3.00;;;;;;;12.06;87.51;100626.66;6305447;22;20022;-90
2022/11/09 09:58:59;;;;;;;13.02;3.13;;;;;;;12.08;87.94;100627.41;6304774;22;20034;-90
2022/11/09 10:01:35;;;;;;;12.98;4.03;;;;;;;12.02;86.95;100626.00;6304471;22;20010;-90
2022/11/09 10:04:00;;;;;;;10.52;2.70;;;;;;;12.11;85.95;100625.44;6305850;22;20020;-89
2022/11/09 10:06:38;;;;;;;9.57;2.80;;;;;;;12.14;86.23;100632.41;6279365;22;19991;-88
2022/11/09 10:09:41;;;;;;;10.95;3.38;;;;;;;12.12;86.87;100643.19;6278168;22;20013;-90
2022/11/09 10:12:30;;;;;;;13.25;3.03;;;;;;;12.17;85.44;100646.41;6304947;22;20621;-91
2022/11/09 10:15:37;;;;;;;8.90;3.38;;;;;;;12.28;85.41;100651.09;6305882;22;20000;-90
2022/11/09 10:18:37;;;;;;;9.63;2.83;;;;;;;12.38;84.73;100652.25;6287006;22;20459;-89
2022/11/09 10:21:40;;;;;;;9.52;3.17;;;;;;;12.49;84.46;100653.38;6228244;22;20014;-89
2022/11/09 10:24:30;;;;;;;7.28;2.42;;;;;;;12.70;84.70;100657.41;6306691;22;20023;-91
2022/11/09 10:26:57;;;;;;;8.70;3.22;;;;;;;12.73;82.41;100646.53;6306265;22;20006;-90
2022/11/09 10:29:24;;;;;;;11.57;2.75;;;;;;;12.64;82.37;100647.09;6307086;22;20019;-90
2022/11/09 10:31:53;;;;;;;9.10;2.70;;;;;;;12.69;82.81;100647.69;6305308;22;20007;-90
2022/11/09 10:34:41;;;;;;;6.93;2.58;;;;;;;12.78;82.34;100643.56;6305572;22;20011;-89
2022/11/09 10:37:18;;;;;;;9.43;2.63;;;;;;;12.73;82.13;100641.19;6306331;22;20015;-91
2022/11/09 10:39:50;;;;;;;9.38;2.63;;;;;;;12.76;81.57;100634.81;6305230;22;20006;-89
2022/11/09 10:42:15;;;;;;;7.40;2.47;;;;;;;12.90;81.32;100643.66;6304527;22;20428;-90
2022/11/09 10:44:40;;;;;;;8.27;2.35;;;;;;;12.90;79.56;100632.09;6305581;22;20030;-90
2022/11/09 10:47:11;;;;;;;8.68;2.70;;;;;;;12.95;80.29;100643.34;6276234;22;20015;-90
2022/11/09 10:49:37;;;;;;;7.32;2.08;;;;;;;13.01;79.59;100648.31;6305242;22;20042;-91
2022/11/09 10:52:05;;;;;;;8.10;2.70;;;;;;;13.13;78.65;100654.69;6303894;22;20021;-90
2022/11/09 10:54:36;;;;;;;9.73;2.97;;;;;;;13.13;79.34;100652.00;6303231;22;20014;-90
2022/11/09 10:57:08;;;;;;;10.20;2.53;;;;;;;13.34;77.97;100661.34;6275607;22;20165;-91
2022/11/09 10:59:49;;;;;;;9.82;2.72;;;;;;;13.35;76.96;100664.88;6274630;22;20017;-91
2022/11/09 11:02:40;;;;;;;6.88;2.17;;;;;;;13.30;77.70;100667.84;6274414;22;20003;-89
2022/11/09 11:05:05;;;;;;;11.73;2.92;;;;;;;13.24;77.22;100672.72;6287268;22;20007;-89
2022/11/09 11:07:32;;;;;;;6.93;2.35;;;;;;;13.16;76.25;100670.50;6277906;22;20213;-89
2022/11/09 11:10:15;;;;;;;8.77;2.42;;;;;;;13.18;77.73;100687.31;6307529;22;20003;-91
2022/11/09 11:13:01;;;;;;;7.57;2.00;;;;;;;13.18;75.36;100664.13;6320405;22;20004;-92
2022/11/09 11:15:39;;;;;;;7.82;2.33;;;;;;;13.13;77.14;100676.91;6304582;22;20116;-90
2022/11/09 11:18:14;;;;;;;5.28;2.05;;;;;;;13.14;75.71;100672.44;6323343;22;20007;-90
2022/11/09 11:20:39;;;;;;;8.13;2.55;;;;;;;13.11;75.05;100672.63;6324737;22;20003;-89
2022/11/09 11:23:12;;;;;;;8.75;2.70;;;;;;;13.08;75.78;100681.69;6317943;22;20050;-89
2022/11/09 11:25:53;;;;;;;6.30;2.22;;;;;;;13.07;76.58;100679.13;6316584;22;20003;-87
2022/11/09 11:28:41;;;;;;;7.78;2.35;;;;;;;13.17;76.61;100682.94;6315527;22;20648;-87